createdAt,value
2022-11-23T00:02:45.779Z,5.34
2022-11-23T00:05:47.350Z,5.39
2022-11-23T00:08:50.372Z,5.39
2022-11-23T00:11:51.996Z,5.43
2022-11-23T00:14:53.473Z,5.46
2022-11-23T00:17:55.041Z,5.45
2022-11-23T00:20:56.576Z,5.47
2022-11-23T00:23:59.629Z,5.47
2022-11-23T00:27:01.250Z,5.46
2022-11-23T00:30:02.824Z,5.45
2022-11-23T00:33:05.119Z,5.45
2022-11-23T00:36:08.278Z,5.46
2022-11-23T00:39:11.311Z,5.44
2022-11-23T00:42:12.740Z,5.49
2022-11-23T00:45:14.238Z,5.46
2022-11-23T00:48:15.847Z,5.42
2022-11-23T00:51:18.417Z,5.43
2022-11-23T00:54:21.341Z,5.42
2022-11-23T00:57:22.905Z,5.42
2022-11-23T01:00:24.455Z,5.39
2022-11-23T01:03:25.987Z,5.36
2022-11-23T01:06:28.274Z,5.33
2022-11-23T01:09:31.426Z,5.33
2022-11-23T01:12:33.330Z,5.30
2022-11-23T01:15:34.782Z,5.30
2022-11-23T01:18:36.451Z,5.30
2022-11-23T01:21:38.570Z,5.29
2022-11-23T01:24:41.644Z,5.29
2022-11-23T01:27:43.211Z,5.30
2022-11-23T01:30:44.764Z,5.32
2022-11-23T01:33:46.457Z,5.34
2022-11-23T01:36:48.033Z,5.41
2022-11-23T01:39:51.029Z,5.41
2022-11-23T01:42:53.957Z,5.42
2022-11-23T01:45:56.529Z,5.41
2022-11-23T01:49:01.973Z,5.43
2022-11-23T01:52:06.742Z,5.46
2022-11-23T01:55:09.910Z,5.48
2022-11-23T01:58:13.370Z,5.47
2022-11-23T02:01:15.322Z,5.47
2022-11-23T02:04:22.535Z,5.49
2022-11-23T02:07:25.276Z,5.48
2022-11-23T02:10:29.752Z,5.46
2022-11-23T02:13:31.781Z,5.48
2022-11-23T02:16:33.514Z,5.48
2022-11-23T02:19:38.545Z,5.52
2022-11-23T02:22:44.863Z,5.49
2022-11-23T02:25:55.009Z,5.46
2022-11-23T02:29:00.813Z,5.50
2022-11-23T02:32:02.569Z,5.48
2022-11-23T02:35:04.398Z,5.48
2022-11-23T02:38:06.838Z,5.50
2022-11-23T02:41:10.038Z,5.52
2022-11-23T02:44:19.841Z,5.52
2022-11-23T02:47:21.777Z,5.55
2022-11-23T02:50:23.249Z,5.59
2022-11-23T02:53:24.764Z,5.61
2022-11-23T02:56:27.781Z,5.60
2022-11-23T02:59:32.525Z,5.59
2022-11-23T03:02:34.411Z,5.59
2022-11-23T03:05:36.025Z,5.61
2022-11-23T03:08:37.730Z,5.58
2022-11-23T03:11:40.661Z,5.60
2022-11-23T03:14:42.296Z,5.61
2022-11-23T03:17:43.936Z,5.61
2022-11-23T03:20:45.458Z,5.60
2022-11-23T03:23:47.040Z,5.60
2022-11-23T03:26:49.951Z,5.60
2022-11-23T03:29:51.519Z,5.60
2022-11-23T03:32:53.553Z,5.64
2022-11-23T03:35:56.412Z,5.64
2022-11-23T03:38:58.041Z,5.65
2022-11-23T03:42:01.158Z,5.61
2022-11-23T03:45:03.038Z,5.65
2022-11-23T03:48:04.590Z,5.62
2022-11-23T03:51:06.368Z,5.63
2022-11-23T03:54:08.219Z,5.63
2022-11-23T03:57:11.065Z,5.64
2022-11-23T04:00:12.689Z,5.69
2022-11-23T04:03:14.251Z,5.70
2022-11-23T04:06:15.684Z,5.69
2022-11-23T04:09:17.217Z,5.69
2022-11-23T04:12:20.076Z,5.69
2022-11-23T04:15:21.732Z,5.67
2022-11-23T04:18:23.149Z,5.68
2022-11-23T04:21:24.810Z,5.67
2022-11-23T04:24:26.409Z,5.68
2022-11-23T04:27:29.421Z,5.68
2022-11-23T04:30:31.112Z,5.69
2022-11-23T04:33:32.793Z,5.68
2022-11-23T04:36:34.353Z,5.69
2022-11-23T04:39:35.778Z,5.65
2022-11-23T04:42:38.758Z,5.65
2022-11-23T04:45:40.758Z,5.68
2022-11-23T04:48:42.463Z,5.68
2022-11-23T04:51:44.012Z,5.68
2022-11-23T04:54:45.813Z,5.66
2022-11-23T04:57:48.722Z,5.68
2022-11-23T05:00:50.281Z,5.67
2022-11-23T05:03:51.855Z,5.65
2022-11-23T05:06:53.503Z,5.63
2022-11-23T05:09:55.091Z,5.61
2022-11-23T05:12:58.001Z,5.63
2022-11-23T05:15:59.642Z,5.59
2022-11-23T05:19:01.056Z,5.56
2022-11-23T05:22:02.617Z,5.51
2022-11-23T05:25:04.311Z,5.48
2022-11-23T05:28:30.214Z,5.47
2022-11-23T05:31:28.772Z,5.42
2022-11-23T05:34:30.373Z,5.44
2022-11-23T05:37:31.943Z,5.41
2022-11-23T05:40:33.529Z,5.42
2022-11-23T05:43:36.545Z,5.44
2022-11-23T05:46:38.163Z,5.46
2022-11-23T05:49:39.635Z,5.51
2022-11-23T05:52:41.186Z,5.55
2022-11-23T05:55:42.820Z,5.56
2022-11-23T05:58:45.629Z,5.57
2022-11-23T06:01:47.259Z,5.55
2022-11-23T06:04:48.755Z,5.55
2022-11-23T06:07:52.562Z,5.52
2022-11-23T06:10:54.280Z,5.48
2022-11-23T06:13:57.286Z,5.47
2022-11-23T06:16:58.921Z,5.48
2022-11-23T06:20:00.640Z,5.49
2022-11-23T06:23:02.362Z,5.51
2022-11-23T06:26:04.137Z,5.55
2022-11-23T06:29:07.024Z,5.57
2022-11-23T06:32:08.868Z,5.58
2022-11-23T06:35:10.410Z,5.58
2022-11-23T06:38:11.963Z,5.58
2022-11-23T06:41:13.498Z,5.60
2022-11-23T06:44:16.471Z,5.62
2022-11-23T06:47:21.926Z,5.61
2022-11-23T06:50:27.103Z,5.61
2022-11-23T06:53:28.994Z,5.64
2022-11-23T06:56:31.460Z,5.65
2022-11-23T06:59:34.919Z,5.65
2022-11-23T07:02:36.600Z,5.65
2022-11-23T07:05:38.775Z,5.65
2022-11-23T07:08:43.582Z,5.63
2022-11-23T07:11:45.097Z,5.65
2022-11-23T07:14:48.087Z,5.62
2022-11-23T07:17:49.601Z,5.64
2022-11-23T07:20:51.139Z,5.63
2022-11-23T07:23:52.723Z,5.64
2022-11-23T07:26:54.510Z,5.68
2022-11-23T07:29:57.359Z,5.69
2022-11-23T07:32:59.665Z,5.70
2022-11-23T07:36:02.320Z,5.69
2022-11-23T07:39:04.284Z,5.70
2022-11-23T07:42:31.209Z,5.73
2022-11-23T07:45:29.711Z,5.75
2022-11-23T07:48:36.206Z,5.80
2022-11-23T07:51:38.131Z,5.86
2022-11-23T07:54:39.666Z,5.87
2022-11-23T07:57:41.163Z,5.90
2022-11-23T08:00:44.140Z,5.92
2022-11-23T08:03:46.071Z,5.93
2022-11-23T08:06:47.571Z,5.93
2022-11-23T08:09:49.041Z,5.97
2022-11-23T08:12:50.993Z,5.98
2022-11-23T08:15:55.773Z,6.00
2022-11-23T08:18:57.687Z,6.03
2022-11-23T08:21:59.344Z,6.05
2022-11-23T08:25:00.880Z,6.09
2022-11-23T08:28:03.307Z,6.10
2022-11-23T08:31:07.419Z,6.14
2022-11-23T08:34:09.254Z,6.14
2022-11-23T08:37:10.959Z,6.17
2022-11-23T08:40:13.247Z,6.18
2022-11-23T08:43:14.768Z,6.23
2022-11-23T08:46:17.970Z,6.28
2022-11-23T08:49:19.541Z,6.30
2022-11-23T08:52:21.096Z,6.32
2022-11-23T08:55:22.587Z,6.33
2022-11-23T08:58:24.158Z,6.35
2022-11-23T09:01:27.865Z,6.36
2022-11-23T09:04:30.968Z,6.38
2022-11-23T09:07:32.663Z,6.40
2022-11-23T09:10:34.349Z,6.47
2022-11-23T09:13:37.251Z,6.48
2022-11-23T09:16:40.173Z,6.51
2022-11-23T09:19:42.038Z,6.53
2022-11-23T09:22:44.089Z,6.60
2022-11-23T09:25:48.490Z,6.66
2022-11-23T09:28:50.020Z,6.74
2022-11-23T09:31:53.278Z,6.76
2022-11-23T09:34:54.873Z,6.73
2022-11-23T09:37:57.520Z,6.71
2022-11-23T09:41:03.879Z,6.70
2022-11-23T09:44:08.600Z,6.76
2022-11-23T09:47:22.646Z,6.83
2022-11-23T09:50:27.247Z,6.88
2022-11-23T09:53:33.677Z,6.95
2022-11-23T09:56:36.608Z,6.99
2022-11-23T09:59:40.913Z,7.10
2022-11-23T10:02:43.795Z,7.17
2022-11-23T10:05:48.177Z,7.14
2022-11-23T10:08:55.670Z,7.04
2022-11-23T10:12:02.666Z,7.01
2022-11-23T10:15:09.938Z,7.07
2022-11-23T10:18:22.645Z,7.07
2022-11-23T10:21:30.314Z,7.08
2022-11-23T10:24:34.041Z,7.13
2022-11-23T10:27:36.055Z,7.17
2022-11-23T10:30:38.564Z,7.23
2022-11-23T10:33:46.613Z,7.36
2022-11-23T10:36:48.180Z,7.37
2022-11-23T10:39:49.694Z,7.39
2022-11-23T10:42:53.816Z,7.38
2022-11-23T10:46:17.460Z,7.38
2022-11-23T10:49:21.213Z,7.38
2022-11-23T10:52:27.901Z,7.44
2022-11-23T10:55:31.703Z,7.51
2022-11-23T10:58:37.104Z,7.65
2022-11-23T11:01:38.720Z,7.77
2022-11-23T11:04:41.713Z,7.85
2022-11-23T11:07:43.437Z,7.84
2022-11-23T11:10:46.464Z,7.84
2022-11-23T11:13:48.533Z,7.93
2022-11-23T11:16:51.257Z,7.86
2022-11-23T11:19:54.666Z,7.90
2022-11-23T11:22:57.261Z,7.99
2022-11-23T11:26:10.583Z,8.31
2022-11-23T11:29:23.332Z,8.49
2022-11-23T11:32:29.129Z,8.50
2022-11-23T11:35:34.677Z,8.62
2022-11-23T11:38:37.417Z,8.79
2022-11-23T11:41:39.908Z,8.82
2022-11-23T11:44:43.022Z,8.89
2022-11-23T11:47:47.338Z,8.74
2022-11-23T11:50:52.547Z,8.63
2022-11-23T11:53:57.526Z,8.52
2022-11-23T11:57:02.499Z,8.58
2022-11-23T12:00:07.456Z,8.59
2022-11-23T12:03:15.068Z,8.63
2022-11-23T12:06:26.345Z,8.67
2022-11-23T12:09:31.599Z,8.65
2022-11-23T12:12:34.738Z,8.52
2022-11-23T12:15:55.663Z,8.50
2022-11-23T12:19:04.584Z,8.50
2022-11-23T12:22:14.638Z,8.39
2022-11-23T12:25:20.649Z,8.46
2022-11-23T12:28:28.503Z,8.33
2022-11-23T12:31:39.450Z,8.24
2022-11-23T12:34:50.358Z,8.37
2022-11-23T12:37:59.614Z,8.46
2022-11-23T12:41:08.623Z,8.52
2022-11-23T12:44:34.521Z,8.52
2022-11-23T12:47:43.097Z,8.34
2022-11-23T12:50:47.490Z,8.36
2022-11-23T12:53:54.716Z,8.43
2022-11-23T12:57:02.718Z,8.32
2022-11-23T13:00:06.523Z,8.14
2022-11-23T13:03:25.949Z,8.07
2022-11-23T13:07:20.265Z,7.92
2022-11-23T13:10:27.830Z,7.82
2022-11-23T13:13:36.715Z,7.92
2022-11-23T13:16:54.572Z,8.04
2022-11-23T13:20:07.915Z,8.05
2022-11-23T13:23:09.539Z,7.91
2022-11-23T13:26:18.009Z,7.69
2022-11-23T13:29:34.318Z,7.69
2022-11-23T13:32:46.610Z,7.74
2022-11-23T13:35:51.405Z,7.69
2022-11-23T13:38:52.999Z,7.69
2022-11-23T13:42:00.612Z,7.67
2022-11-23T13:45:22.476Z,7.66
2022-11-23T13:48:56.271Z,7.63
2022-11-23T13:52:04.036Z,7.64
2022-11-23T13:55:18.453Z,7.60
2022-11-23T13:58:40.061Z,7.56
2022-11-23T14:02:00.536Z,7.54
2022-11-23T14:05:20.972Z,7.56
2022-11-23T14:08:28.198Z,7.51
2022-11-23T14:11:30.644Z,7.45
2022-11-23T14:14:40.179Z,7.40
2022-11-23T14:17:55.812Z,7.39
2022-11-23T14:21:04.125Z,7.32
2022-11-23T14:24:19.815Z,7.24
2022-11-23T14:27:46.746Z,7.16
2022-11-23T14:30:56.008Z,7.09
2022-11-23T14:34:02.977Z,7.11
2022-11-23T14:37:09.340Z,7.10
2022-11-23T14:40:17.933Z,7.10
2022-11-23T14:43:20.100Z,7.09
2022-11-23T14:46:22.708Z,7.07
2022-11-23T14:49:24.914Z,6.99
2022-11-23T14:52:27.674Z,7.00
2022-11-23T14:55:30.696Z,6.92
2022-11-23T14:58:32.891Z,6.88
2022-11-23T15:01:34.940Z,6.87
2022-11-23T15:04:42.267Z,6.81
2022-11-23T15:07:50.920Z,6.81
2022-11-23T15:11:00.052Z,6.75
2022-11-23T15:14:04.790Z,6.70
2022-11-23T15:17:15.935Z,6.68
2022-11-23T15:20:17.479Z,6.66
2022-11-23T15:23:20.656Z,6.61
2022-11-23T15:26:46.631Z,6.55
2022-11-23T15:29:51.028Z,6.50
2022-11-23T15:32:56.813Z,6.48
2022-11-23T15:35:58.449Z,6.47
2022-11-23T15:39:01.401Z,6.43
2022-11-23T15:42:04.951Z,6.35
2022-11-23T15:45:26.937Z,6.35
2022-11-23T15:48:29.889Z,6.28
2022-11-23T15:51:33.216Z,6.23
2022-11-23T15:54:35.827Z,6.18
2022-11-23T15:57:39.734Z,6.16
2022-11-23T16:00:46.914Z,6.11
2022-11-23T16:04:09.858Z,6.07
2022-11-23T16:07:19.062Z,6.06
2022-11-23T16:10:21.559Z,6.09
2022-11-23T16:13:35.928Z,6.06
2022-11-23T16:16:42.708Z,6.06
2022-11-23T16:19:47.827Z,6.05
2022-11-23T16:22:50.190Z,6.08
2022-11-23T16:25:59.370Z,6.06
2022-11-23T16:29:02.440Z,6.02
2022-11-23T16:32:07.152Z,6.00
2022-11-23T16:35:15.484Z,5.94
2022-11-23T16:38:17.103Z,5.92
2022-11-23T16:41:19.004Z,5.88
2022-11-23T16:44:21.853Z,5.88
2022-11-23T16:47:24.403Z,5.88
2022-11-23T16:50:27.366Z,5.87
2022-11-23T16:53:47.081Z,5.89
2022-11-23T16:56:52.676Z,5.88
2022-11-23T16:59:55.651Z,5.86
2022-11-23T17:02:59.125Z,5.85
2022-11-23T17:06:00.712Z,5.81
2022-11-23T17:09:07.941Z,5.79
2022-11-23T17:12:14.538Z,5.71
2022-11-23T17:15:18.052Z,5.68
2022-11-23T17:18:22.871Z,5.64
2022-11-23T17:21:24.458Z,5.58
2022-11-23T17:24:26.163Z,5.57
2022-11-23T17:27:28.950Z,5.56
2022-11-23T17:30:33.023Z,5.52
2022-11-23T17:33:34.626Z,5.56
2022-11-23T17:36:36.259Z,5.62
2022-11-23T17:39:37.786Z,5.68
2022-11-23T17:42:39.188Z,5.73
2022-11-23T17:45:42.891Z,5.73
2022-11-23T17:48:44.842Z,5.73
2022-11-23T17:51:46.346Z,5.74
2022-11-23T17:54:48.147Z,5.69
2022-11-23T17:57:49.728Z,5.61
2022-11-23T18:00:52.586Z,5.61
2022-11-23T18:03:54.185Z,5.56
2022-11-23T18:06:55.931Z,5.56
2022-11-23T18:09:57.600Z,5.58
2022-11-23T18:12:59.155Z,5.61
2022-11-23T18:16:02.205Z,5.62
2022-11-23T18:19:04.621Z,5.70
2022-11-23T18:22:06.410Z,5.72
2022-11-23T18:25:08.452Z,5.76
2022-11-23T18:28:10.454Z,5.76
2022-11-23T18:31:13.582Z,5.75
2022-11-23T18:34:15.352Z,5.71
2022-11-23T18:37:16.919Z,5.71
2022-11-23T18:40:18.604Z,5.71
2022-11-23T18:43:20.265Z,5.66
2022-11-23T18:46:23.468Z,5.66
2022-11-23T18:49:25.131Z,5.62
2022-11-23T18:52:26.723Z,5.64
2022-11-23T18:55:28.178Z,5.59
2022-11-23T18:58:31.815Z,5.54
2022-11-23T19:01:35.127Z,5.56
2022-11-23T19:04:38.749Z,5.52
2022-11-23T19:07:40.256Z,5.49
2022-11-23T19:10:41.844Z,5.51
2022-11-23T19:13:43.841Z,5.49
2022-11-23T19:16:46.732Z,5.51
2022-11-23T19:19:48.284Z,5.53
2022-11-23T19:22:50.091Z,5.55
2022-11-23T19:25:51.657Z,5.66
2022-11-23T19:28:54.022Z,5.76
2022-11-23T19:31:56.947Z,5.78
2022-11-23T19:34:59.240Z,5.80
2022-11-23T19:38:00.818Z,5.79
2022-11-23T19:41:02.376Z,5.83
2022-11-23T19:44:04.455Z,5.85
2022-11-23T19:47:13.739Z,5.85
2022-11-23T19:50:17.104Z,5.84
2022-11-23T19:53:18.729Z,5.85
2022-11-23T19:56:21.094Z,5.84
2022-11-23T19:59:23.964Z,5.89
2022-11-23T20:02:27.152Z,5.86
2022-11-23T20:05:28.761Z,5.84
2022-11-23T20:08:30.672Z,5.82
2022-11-23T20:11:36.288Z,5.79
2022-11-23T20:14:38.062Z,5.77
2022-11-23T20:17:41.385Z,5.73
2022-11-23T20:20:43.658Z,5.66
2022-11-23T20:23:45.958Z,5.60
2022-11-23T20:26:47.515Z,5.61
2022-11-23T20:29:49.294Z,5.57
2022-11-23T20:32:52.264Z,5.58
2022-11-23T20:35:53.657Z,5.53
2022-11-23T20:38:55.721Z,5.44
2022-11-23T20:41:58.754Z,5.37
2022-11-23T20:45:00.632Z,5.27
2022-11-23T20:48:03.642Z,5.18
2022-11-23T20:51:10.211Z,5.15
2022-11-23T20:54:12.368Z,5.07
2022-11-23T20:57:13.883Z,5.04
2022-11-23T21:00:16.838Z,4.99
2022-11-23T21:03:19.779Z,4.96
2022-11-23T21:06:22.077Z,4.92
2022-11-23T21:09:23.861Z,4.91
2022-11-23T21:12:49.129Z,4.90
2022-11-23T21:15:52.100Z,4.89
2022-11-23T21:18:55.058Z,4.88
2022-11-23T21:21:57.570Z,4.87
2022-11-23T21:24:59.029Z,4.86
2022-11-23T21:28:03.202Z,4.86
2022-11-23T21:31:08.178Z,4.84
2022-11-23T21:34:17.571Z,4.85
2022-11-23T21:37:19.061Z,4.82
2022-11-23T21:40:20.690Z,4.82
2022-11-23T21:43:22.188Z,4.82
2022-11-23T21:46:24.625Z,4.81
2022-11-23T21:49:28.536Z,4.82
2022-11-23T21:52:30.496Z,4.82
2022-11-23T21:55:32.774Z,4.81
2022-11-23T21:58:48.176Z,4.80
2022-11-23T22:01:49.880Z,4.80
2022-11-23T22:04:53.044Z,4.81
2022-11-23T22:08:27.838Z,4.83
2022-11-23T22:11:17.354Z,4.83
2022-11-23T22:14:19.744Z,4.84
2022-11-23T22:17:21.248Z,4.84
2022-11-23T22:20:24.113Z,4.85
2022-11-23T22:23:25.920Z,4.86
2022-11-23T22:26:30.300Z,4.87
2022-11-23T22:29:31.875Z,4.90
2022-11-23T22:32:33.383Z,4.90
2022-11-23T22:35:36.402Z,4.92
2022-11-23T22:38:38.389Z,4.95
2022-11-23T22:41:40.042Z,4.95
2022-11-23T22:44:41.857Z,4.98
2022-11-23T22:47:43.444Z,5.00
2022-11-23T22:50:56.383Z,5.01
2022-11-23T22:53:58.776Z,5.05
2022-11-23T22:57:00.421Z,5.04
2022-11-23T23:00:01.947Z,5.04
2022-11-23T23:03:03.771Z,5.06
2022-11-23T23:06:07.859Z,5.08
2022-11-23T23:09:09.922Z,5.10
2022-11-23T23:12:11.453Z,5.13
2022-11-23T23:15:13.142Z,5.14
2022-11-23T23:18:16.257Z,5.16
2022-11-23T23:21:19.898Z,5.18
2022-11-23T23:24:21.493Z,5.19
2022-11-23T23:27:23.453Z,5.21
2022-11-23T23:30:25.058Z,5.21
2022-11-23T23:33:28.336Z,5.20
2022-11-23T23:36:31.282Z,5.17
2022-11-23T23:39:32.828Z,5.13
2022-11-23T23:42:34.337Z,5.13
2022-11-23T23:45:35.884Z,5.15
2022-11-23T23:48:38.141Z,5.16
2022-11-23T23:51:41.250Z,5.15
2022-11-23T23:54:43.210Z,5.16
2022-11-23T23:57:44.759Z,5.18
